createdAt,value
2019-05-21T00:01:32.779Z,11.53
2019-05-21T00:03:59.148Z,13.37
2019-05-21T00:06:25.594Z,10.87
2019-05-21T00:08:51.994Z,9.87
2019-05-21T00:11:18.372Z,9.27
2019-05-21T00:13:44.779Z,11.73
2019-05-21T00:16:11.213Z,14.10
2019-05-21T00:18:37.530Z,11.90
2019-05-21T00:21:03.980Z,9.60
2019-05-21T00:23:30.408Z,9.03
2019-05-21T00:25:56.896Z,7.67
2019-05-21T00:28:33.396Z,7.27
2019-05-21T00:31:37.151Z,8.77
2019-05-21T00:34:44.055Z,11.03
2019-05-21T00:37:46.756Z,14.13
2019-05-21T00:40:50.491Z,11.43
2019-05-21T00:43:20.732Z,17.20
2019-05-21T00:45:47.069Z,14.97
2019-05-21T00:48:13.451Z,10.10
2019-05-21T00:50:40.791Z,16.03
2019-05-21T00:53:07.190Z,12.43
2019-05-21T00:55:33.603Z,12.60
2019-05-21T00:58:00.083Z,9.80
2019-05-21T01:00:26.412Z,11.03
2019-05-21T01:02:52.825Z,13.00
2019-05-21T01:05:20.240Z,10.30
2019-05-21T01:07:46.649Z,11.47
2019-05-21T01:10:12.960Z,17.00
2019-05-21T01:12:40.441Z,12.20
2019-05-21T01:15:06.888Z,12.50
2019-05-21T01:17:33.286Z,11.33
2019-05-21T01:19:59.655Z,9.90
2019-05-21T01:22:26.021Z,12.87
2019-05-21T01:24:52.428Z,12.63
2019-05-21T01:27:18.856Z,13.87
2019-05-21T01:29:45.259Z,10.70
2019-05-21T01:32:11.674Z,8.87
2019-05-21T01:34:38.134Z,12.00
2019-05-21T01:37:04.565Z,10.47
2019-05-21T01:39:30.956Z,12.73
2019-05-21T01:41:57.363Z,12.90
2019-05-21T01:44:23.755Z,15.17
2019-05-21T01:46:50.176Z,14.43
2019-05-21T01:49:16.534Z,10.70
2019-05-21T01:51:42.960Z,14.60
2019-05-21T01:54:09.350Z,10.80
2019-05-21T01:56:35.819Z,12.73
2019-05-21T01:59:02.571Z,62.63
2019-05-21T02:01:28.978Z,44.23
2019-05-21T02:03:55.377Z,38.07
2019-05-21T02:06:22.630Z,28.17
2019-05-21T02:08:49.057Z,27.87
2019-05-21T02:11:15.494Z,28.40
2019-05-21T02:13:41.953Z,20.37
2019-05-21T02:16:08.359Z,16.57
2019-05-21T02:18:34.782Z,19.07
2019-05-21T02:21:01.221Z,13.67
2019-05-21T02:23:27.689Z,13.73
2019-05-21T02:25:54.496Z,11.83
2019-05-21T02:28:21.187Z,15.40
2019-05-21T02:30:47.618Z,13.43
2019-05-21T02:33:15.132Z,12.47
2019-05-21T02:35:53.829Z,10.27
2019-05-21T02:38:09.694Z,13.60
2019-05-21T02:40:36.044Z,14.00
2019-05-21T02:43:02.659Z,12.60
2019-05-21T02:45:29.041Z,13.67
2019-05-21T02:47:55.458Z,12.97
2019-05-21T02:50:21.835Z,14.43
2019-05-21T02:52:48.226Z,12.53
2019-05-21T02:55:15.031Z,15.40
2019-05-21T02:57:41.476Z,16.10
2019-05-21T03:00:26.922Z,17.40
2019-05-21T03:02:53.395Z,15.70
2019-05-21T03:05:19.726Z,14.43
2019-05-21T03:07:46.110Z,15.77
2019-05-21T03:10:12.797Z,16.50
2019-05-21T03:12:39.138Z,14.47
2019-05-21T03:15:05.611Z,15.77
2019-05-21T03:17:32.035Z,16.50
2019-05-21T03:19:58.427Z,17.47
2019-05-21T03:22:24.864Z,14.80
2019-05-21T03:24:51.217Z,14.90
2019-05-21T03:27:17.602Z,15.03
2019-05-21T03:29:44.059Z,17.13
2019-05-21T03:32:10.536Z,16.03
2019-05-21T03:34:36.950Z,14.67
2019-05-21T03:37:03.371Z,13.67
2019-05-21T03:39:29.773Z,17.73
2019-05-21T03:41:57.267Z,17.20
2019-05-21T03:44:23.631Z,15.20
2019-05-21T03:46:50.017Z,15.87
2019-05-21T03:49:16.587Z,13.13
2019-05-21T03:51:43.083Z,12.00
2019-05-21T03:54:09.526Z,14.83
2019-05-21T03:56:35.967Z,17.33
2019-05-21T03:59:03.511Z,17.53
2019-05-21T04:01:31.006Z,15.97
2019-05-21T04:03:57.461Z,13.43
2019-05-21T04:06:23.883Z,18.27
2019-05-21T04:08:50.319Z,16.37
2019-05-21T04:11:16.674Z,15.93
2019-05-21T04:13:43.068Z,14.13
2019-05-21T04:16:13.901Z,14.03
2019-05-21T04:18:42.191Z,14.07
2019-05-21T04:21:08.615Z,14.90
2019-05-21T04:23:35.021Z,14.23
2019-05-21T04:26:01.406Z,15.53
2019-05-21T04:28:28.871Z,16.57
2019-05-21T04:30:55.271Z,20.70
2019-05-21T04:33:21.679Z,16.63
2019-05-21T04:35:48.061Z,13.53
2019-05-21T04:38:14.450Z,15.23
2019-05-21T04:40:40.849Z,17.07
2019-05-21T04:43:07.244Z,16.60
2019-05-21T04:45:33.632Z,19.47
2019-05-21T04:48:00.099Z,24.17
2019-05-21T04:50:27.667Z,26.20
2019-05-21T04:52:54.099Z,27.43
2019-05-21T04:55:20.578Z,32.60
2019-05-21T04:57:46.970Z,30.23
2019-05-21T05:00:14.712Z,35.17
2019-05-21T05:02:41.028Z,34.70
2019-05-21T05:05:08.021Z,32.23
2019-05-21T05:07:34.418Z,33.23
2019-05-21T05:10:00.827Z,31.20
2019-05-21T05:12:27.157Z,34.40
2019-05-21T05:14:53.646Z,27.93
2019-05-21T05:17:20.006Z,36.13
2019-05-21T05:19:46.404Z,32.00
2019-05-21T05:22:12.789Z,32.93
2019-05-21T05:24:39.204Z,33.33
2019-05-21T05:27:05.642Z,38.07
2019-05-21T05:29:32.021Z,40.57
2019-05-21T05:31:58.491Z,39.53
2019-05-21T05:34:24.880Z,42.87
2019-05-21T05:36:52.232Z,44.07
2019-05-21T05:39:18.608Z,35.27
2019-05-21T05:41:44.989Z,39.17
2019-05-21T05:44:11.491Z,46.50
2019-05-21T05:46:37.928Z,43.40
2019-05-21T05:49:21.622Z,44.40
2019-05-21T05:51:48.016Z,50.13
2019-05-21T05:54:14.488Z,54.97
2019-05-21T05:56:40.981Z,58.10
2019-05-21T05:59:08.204Z,57.43
2019-05-21T06:02:00.499Z,57.37
2019-05-21T06:04:30.269Z,54.37
2019-05-21T06:06:55.137Z,53.47
2019-05-21T06:09:21.642Z,55.87
2019-05-21T06:11:48.049Z,56.33
2019-05-21T06:14:14.511Z,56.13
2019-05-21T06:16:40.861Z,53.57
2019-05-21T06:19:07.265Z,53.70
2019-05-21T06:21:34.362Z,54.33
2019-05-21T06:24:00.803Z,52.53
2019-05-21T06:26:27.151Z,54.20
2019-05-21T06:28:54.322Z,51.67
2019-05-21T06:31:20.670Z,49.63
2019-05-21T06:33:47.106Z,50.27
2019-05-21T06:36:13.474Z,53.97
2019-05-21T06:38:39.901Z,54.83
2019-05-21T06:41:06.315Z,55.20
2019-05-21T06:43:32.761Z,52.53
2019-05-21T06:45:59.117Z,54.43
2019-05-21T06:48:25.540Z,72.43
2019-05-21T06:50:52.010Z,66.37
2019-05-21T06:56:42.685Z,59.27
2019-05-21T06:59:09.082Z,60.57
2019-05-21T07:01:35.526Z,63.50
2019-05-21T07:04:02.003Z,59.90
2019-05-21T07:06:28.409Z,61.63
2019-05-21T07:08:54.818Z,61.43
2019-05-21T07:11:21.266Z,59.40
2019-05-21T07:13:47.721Z,61.07
2019-05-21T07:16:14.291Z,53.67
2019-05-21T07:18:41.618Z,51.87
2019-05-21T07:21:08.437Z,59.30
2019-05-21T07:23:34.986Z,58.13
2019-05-21T07:26:01.537Z,58.77
2019-05-21T07:28:27.954Z,54.40
2019-05-21T07:30:54.390Z,55.90
2019-05-21T07:33:20.796Z,56.40
2019-05-21T07:35:47.206Z,56.50
2019-05-21T07:38:13.700Z,59.50
2019-05-21T07:40:40.393Z,63.40
2019-05-21T07:43:06.909Z,56.37
2019-05-21T07:45:33.303Z,58.17
2019-05-21T07:47:59.727Z,52.00
2019-05-21T07:50:26.190Z,59.50
2019-05-21T07:52:53.392Z,54.57
2019-05-21T07:55:20.864Z,56.93
2019-05-21T07:57:47.275Z,56.87
2019-05-21T08:00:14.992Z,55.60
2019-05-21T08:02:41.371Z,51.80
2019-05-21T08:05:08.031Z,50.43
2019-05-21T08:07:34.432Z,55.33
2019-05-21T08:10:00.904Z,53.50
2019-05-21T08:12:37.934Z,53.57
2019-05-21T08:14:55.607Z,48.67
2019-05-21T08:17:22.126Z,47.80
2019-05-21T08:19:48.674Z,46.13
2019-05-21T08:22:15.169Z,50.60
2019-05-21T08:24:41.541Z,50.10
2019-05-21T08:27:08.002Z,50.67
2019-05-21T08:29:34.473Z,43.30
2019-05-21T08:32:00.948Z,44.63
2019-05-21T08:34:27.396Z,43.50
2019-05-21T08:36:53.838Z,47.53
2019-05-21T08:39:28.485Z,41.13
2019-05-21T08:41:48.438Z,48.07
2019-05-21T08:44:14.861Z,55.07
2019-05-21T08:46:41.328Z,41.77
2019-05-21T08:49:07.869Z,50.20
2019-05-21T08:51:34.261Z,39.50
2019-05-21T08:54:00.695Z,35.60
2019-05-21T08:56:28.296Z,32.60
2019-05-21T08:58:54.692Z,32.03
2019-05-21T09:01:21.415Z,29.87
2019-05-21T09:03:47.852Z,28.50
2019-05-21T09:06:14.465Z,30.27
2019-05-21T09:08:40.904Z,28.03
2019-05-21T09:11:07.253Z,24.33
2019-05-21T09:13:33.892Z,22.83
2019-05-21T09:16:00.297Z,21.03
2019-05-21T09:18:26.758Z,24.07
2019-05-21T09:20:53.104Z,22.93
2019-05-21T09:23:19.591Z,27.65
2019-05-21T09:25:49.434Z,23.07
2019-05-21T09:28:14.293Z,22.15
2019-05-21T09:30:40.745Z,17.10
2019-05-21T09:33:07.196Z,17.02
2019-05-21T09:35:33.592Z,16.90
2019-05-21T09:38:00.257Z,19.95
2019-05-21T09:40:28.054Z,15.05
2019-05-21T09:42:54.530Z,15.83
2019-05-21T09:45:22.082Z,14.58
2019-05-21T09:47:49.035Z,17.05
2019-05-21T09:50:15.563Z,16.75
2019-05-21T09:52:42.051Z,16.87
2019-05-21T09:55:10.745Z,20.70
2019-05-21T09:57:57.427Z,19.47
2019-05-21T10:00:31.785Z,14.97
2019-05-21T10:02:58.174Z,16.57
2019-05-21T10:05:24.694Z,13.83
2019-05-21T10:07:51.269Z,13.78
2019-05-21T10:10:18.733Z,14.18
2019-05-21T10:12:45.216Z,17.20
2019-05-21T10:15:12.151Z,11.85
2019-05-21T10:17:38.636Z,12.93
2019-05-21T10:20:05.952Z,9.28
2019-05-21T10:22:32.371Z,10.53
2019-05-21T10:24:58.816Z,10.00
2019-05-21T10:27:25.234Z,14.90
2019-05-21T10:29:51.679Z,12.45
2019-05-21T10:32:18.117Z,11.03
2019-05-21T10:34:44.541Z,14.65
2019-05-21T10:37:10.942Z,11.60
2019-05-21T10:39:37.439Z,13.55
2019-05-21T10:42:03.955Z,8.88
2019-05-21T10:44:30.352Z,11.33
2019-05-21T10:46:56.699Z,10.08
2019-05-21T10:49:23.155Z,11.97
2019-05-21T10:51:49.582Z,9.63
2019-05-21T10:54:15.987Z,8.78
2019-05-21T10:56:47.827Z,8.50
2019-05-21T10:59:10.570Z,7.95
2019-05-21T11:01:50.931Z,10.55
2019-05-21T11:04:19.223Z,13.05
2019-05-21T11:06:47.334Z,11.85
2019-05-21T11:09:15.585Z,10.93
2019-05-21T11:11:42.161Z,11.75
2019-05-21T11:14:08.568Z,9.25
2019-05-21T11:16:34.998Z,13.50
2019-05-21T11:19:01.441Z,13.65
2019-05-21T11:21:27.859Z,8.73
2019-05-21T11:23:54.391Z,9.70
2019-05-21T11:26:20.757Z,8.73
2019-05-21T11:28:47.266Z,8.55
2019-05-21T11:31:13.681Z,10.85
2019-05-21T11:33:40.099Z,10.13
2019-05-21T11:36:06.491Z,7.10
2019-05-21T11:38:40.048Z,8.85
2019-05-21T11:41:01.076Z,11.48
2019-05-21T11:43:27.455Z,5.72
2019-05-21T11:45:53.887Z,6.20
2019-05-21T11:48:20.358Z,5.28
2019-05-21T11:50:46.884Z,5.75
2019-05-21T11:53:13.337Z,7.90
2019-05-21T11:55:39.759Z,6.75
2019-05-21T11:58:07.376Z,9.05
2019-05-21T12:00:33.868Z,5.83
2019-05-21T12:03:00.310Z,5.35
2019-05-21T12:05:26.687Z,5.53
2019-05-21T12:07:54.269Z,6.58
2019-05-21T12:10:20.680Z,6.95
2019-05-21T12:12:47.195Z,4.75
2019-05-21T12:15:14.239Z,9.48
2019-05-21T12:17:41.018Z,7.20
2019-05-21T12:20:08.593Z,4.60
2019-05-21T12:22:35.037Z,6.08
2019-05-21T12:25:01.530Z,6.33
2019-05-21T12:27:27.910Z,4.90
2019-05-21T12:29:54.375Z,10.75
2019-05-21T12:32:21.373Z,7.95
2019-05-21T12:34:48.040Z,7.85
2019-05-21T12:37:15.721Z,5.55
2019-05-21T12:39:42.051Z,6.75
2019-05-21T12:42:08.512Z,8.70
2019-05-21T12:44:34.859Z,6.15
2019-05-21T12:47:01.319Z,5.97
2019-05-21T12:49:27.774Z,9.48
2019-05-21T12:51:54.222Z,7.35
2019-05-21T12:54:20.603Z,9.98
2019-05-21T12:56:47.057Z,9.80
2019-05-21T12:59:13.421Z,8.68
2019-05-21T13:01:39.879Z,9.35
2019-05-21T13:04:06.311Z,7.97
2019-05-21T13:06:33.758Z,5.22
2019-05-21T13:09:01.187Z,9.60
2019-05-21T13:11:29.415Z,6.20
2019-05-21T13:13:55.871Z,5.28
2019-05-21T13:16:22.236Z,6.40
2019-05-21T13:18:48.734Z,7.58
2019-05-21T13:21:15.115Z,12.58
2019-05-21T13:23:41.537Z,5.67
2019-05-21T13:26:08.727Z,7.95
2019-05-21T13:28:35.310Z,7.95
2019-05-21T13:31:01.672Z,13.55
2019-05-21T13:33:28.119Z,8.85
2019-05-21T13:35:54.549Z,9.93
2019-05-21T13:38:21.004Z,9.23
2019-05-21T13:40:48.068Z,7.45
2019-05-21T13:43:14.483Z,9.45
2019-05-21T13:45:40.869Z,10.05
2019-05-21T13:48:07.629Z,9.93
2019-05-21T13:50:34.025Z,6.60
2019-05-21T13:53:00.524Z,4.40
2019-05-21T13:55:26.957Z,14.40
2019-05-21T13:57:53.432Z,7.33
2019-05-21T14:00:28.182Z,5.60
2019-05-21T14:02:54.750Z,6.03
2019-05-21T14:05:21.326Z,5.00
2019-05-21T14:07:47.783Z,5.28
2019-05-21T14:10:19.324Z,11.50
2019-05-21T14:12:42.604Z,6.70
2019-05-21T14:15:09.194Z,8.30
2019-05-21T14:17:35.711Z,7.23
2019-05-21T14:20:06.840Z,6.03
2019-05-21T14:22:36.414Z,5.27
2019-05-21T14:25:01.525Z,10.20
2019-05-21T14:27:43.220Z,6.83
2019-05-21T14:29:56.227Z,5.10
2019-05-21T14:32:22.609Z,7.83
2019-05-21T14:35:00.800Z,4.77
2019-05-21T14:37:17.331Z,9.47
2019-05-21T14:39:43.696Z,6.77
2019-05-21T14:42:10.111Z,7.57
2019-05-21T14:44:36.481Z,10.53
2019-05-21T14:47:02.999Z,8.33
2019-05-21T14:49:29.360Z,7.47
2019-05-21T14:51:55.813Z,3.62
2019-05-21T14:54:26.653Z,5.50
2019-05-21T14:56:51.411Z,15.35
2019-05-21T14:59:17.841Z,6.03
2019-05-21T15:01:44.193Z,5.03
2019-05-21T15:04:10.609Z,8.60
2019-05-21T15:06:36.976Z,12.73
2019-05-21T15:09:04.244Z,6.83
2019-05-21T15:11:31.827Z,15.48
2019-05-21T15:13:58.239Z,8.75
2019-05-21T15:16:24.655Z,8.30
2019-05-21T15:18:51.061Z,7.57
2019-05-21T15:21:22.123Z,11.73
2019-05-21T15:23:49.150Z,16.47
2019-05-21T15:26:16.913Z,5.47
2019-05-21T15:28:43.268Z,11.97
2019-05-21T15:31:09.640Z,12.47
2019-05-21T15:33:35.984Z,10.37
2019-05-21T15:36:02.385Z,10.07
2019-05-21T15:38:28.785Z,15.13
2019-05-21T15:41:09.664Z,8.90
2019-05-21T15:43:23.390Z,8.00
2019-05-21T15:45:49.746Z,6.67
2019-05-21T15:48:16.259Z,10.67
2019-05-21T15:50:42.748Z,10.17
2019-05-21T15:53:09.159Z,7.87
2019-05-21T15:55:35.550Z,7.13
2019-05-21T15:58:01.977Z,13.20
2019-05-21T16:00:29.982Z,8.73
2019-05-21T16:02:56.371Z,8.07
2019-05-21T16:05:22.725Z,7.57
2019-05-21T16:07:49.142Z,11.57
2019-05-21T16:10:15.813Z,11.43
2019-05-21T16:12:42.185Z,11.70
2019-05-21T16:15:09.436Z,11.27
2019-05-21T16:17:36.036Z,11.03
2019-05-21T16:20:06.041Z,9.13
2019-05-21T16:22:32.412Z,14.37
2019-05-21T16:24:58.984Z,11.13
2019-05-21T16:27:26.585Z,17.80
2019-05-21T16:29:53.167Z,10.97
2019-05-21T16:32:20.957Z,15.07
2019-05-21T16:34:47.620Z,15.00
2019-05-21T16:37:14.100Z,15.10
2019-05-21T16:39:40.557Z,16.93
2019-05-21T16:42:06.992Z,18.77
2019-05-21T16:44:33.428Z,20.57
2019-05-21T16:47:00.175Z,18.33
2019-05-21T16:49:26.685Z,17.70
2019-05-21T16:51:53.195Z,20.53
2019-05-21T16:54:19.684Z,19.47
2019-05-21T16:56:46.081Z,17.67
2019-05-21T16:59:12.631Z,16.87
2019-05-21T17:01:38.986Z,15.50
2019-05-21T17:04:05.589Z,21.87
2019-05-21T17:06:32.053Z,17.40
2019-05-21T17:08:58.545Z,27.27
2019-05-21T17:11:24.946Z,25.13
2019-05-21T17:13:51.418Z,16.87
2019-05-21T17:16:18.908Z,26.97
2019-05-21T17:18:45.532Z,28.97
2019-05-21T17:21:12.164Z,16.13
2019-05-21T17:23:38.688Z,40.20
2019-05-21T17:26:05.354Z,28.13
2019-05-21T17:28:31.862Z,20.67
2019-05-21T17:30:58.264Z,18.50
2019-05-21T17:33:24.707Z,22.00
2019-05-21T17:35:51.181Z,16.83
2019-05-21T17:38:17.834Z,15.23
2019-05-21T17:40:44.501Z,28.90
2019-05-21T17:43:10.925Z,87.87
2019-05-21T17:45:38.528Z,43.43
2019-05-21T17:48:05.163Z,18.90
2019-05-21T17:50:31.663Z,23.33
2019-05-21T17:52:58.286Z,29.47
2019-05-21T17:55:26.025Z,40.93
2019-05-21T17:57:53.247Z,31.80
2019-05-21T18:00:22.989Z,23.53
2019-05-21T18:02:50.665Z,57.70
2019-05-21T18:05:18.979Z,20.83
2019-05-21T18:07:45.990Z,20.30
2019-05-21T18:10:13.787Z,14.93
2019-05-21T18:12:40.365Z,19.93
2019-05-21T18:15:09.792Z,27.53
2019-05-21T18:17:36.672Z,18.87
2019-05-21T18:20:07.684Z,21.57
2019-05-21T18:22:34.933Z,22.80
2019-05-21T18:25:01.850Z,20.43
2019-05-21T18:27:28.569Z,27.03
2019-05-21T18:29:54.998Z,29.57
2019-05-21T18:32:21.430Z,41.97
2019-05-21T18:34:48.085Z,43.97
2019-05-21T18:37:14.643Z,37.37
2019-05-21T18:39:41.062Z,36.07
2019-05-21T18:42:20.940Z,42.03
2019-05-21T18:44:35.887Z,37.43
2019-05-21T18:47:02.331Z,42.27
2019-05-21T18:49:28.745Z,47.77
2019-05-21T18:51:55.224Z,51.80
2019-05-21T18:54:21.769Z,42.47
2019-05-21T18:56:48.291Z,46.67
2019-05-21T18:59:15.994Z,46.57
2019-05-21T19:01:42.530Z,46.20
2019-05-21T19:04:10.112Z,48.00
2019-05-21T19:06:36.628Z,47.43
2019-05-21T19:09:05.761Z,54.60
2019-05-21T19:11:32.439Z,45.80
2019-05-21T19:13:59.372Z,47.13
2019-05-21T19:16:29.651Z,48.77
2019-05-21T19:18:54.123Z,54.23
2019-05-21T19:21:20.628Z,48.30
2019-05-21T19:23:48.109Z,48.07
2019-05-21T19:26:14.480Z,59.23
2019-05-21T19:28:41.053Z,49.63
2019-05-21T19:31:08.106Z,57.57
2019-05-21T19:33:34.767Z,52.87
2019-05-21T19:36:01.372Z,49.77
2019-05-21T19:38:27.693Z,49.53
2019-05-21T19:40:54.057Z,61.40
2019-05-21T19:43:20.619Z,46.73
2019-05-21T19:45:47.217Z,46.33
2019-05-21T19:48:13.582Z,41.77
2019-05-21T19:50:40.032Z,27.60
2019-05-21T19:53:06.534Z,23.37
2019-05-21T19:55:34.838Z,21.83
2019-05-21T19:58:01.232Z,25.73
2019-05-21T20:00:30.115Z,26.67
2019-05-21T20:02:56.549Z,29.60
2019-05-21T20:05:23.586Z,32.43
2019-05-21T20:07:50.120Z,31.67
2019-05-21T20:10:16.664Z,48.77
2019-05-21T20:12:43.153Z,75.60
2019-05-21T20:15:11.219Z,59.37
2019-05-21T20:17:39.541Z,66.80
2019-05-21T20:20:07.698Z,73.93
2019-05-21T20:22:34.359Z,72.10
2019-05-21T20:25:01.535Z,68.47
2019-05-21T20:27:28.605Z,56.47
2019-05-21T20:29:55.475Z,49.67
2019-05-21T20:32:22.642Z,46.40
2019-05-21T20:34:51.164Z,37.40
2019-05-21T20:37:19.817Z,32.70
2019-05-21T20:39:48.234Z,33.83
2019-05-21T20:42:17.898Z,32.27
2019-05-21T20:44:45.156Z,31.87
2019-05-21T20:47:12.914Z,29.90
2019-05-21T20:49:39.958Z,40.57
2019-05-21T20:52:18.264Z,34.47
2019-05-21T20:54:37.726Z,40.80
2019-05-21T20:57:06.521Z,41.37
2019-05-21T20:59:33.153Z,31.63
2019-05-21T21:02:04.991Z,23.57
2019-05-21T21:04:30.029Z,26.83
2019-05-21T21:06:57.391Z,26.63
2019-05-21T21:09:23.969Z,27.00
2019-05-21T21:11:50.471Z,35.60
2019-05-21T21:14:18.296Z,35.77
2019-05-21T21:16:45.357Z,38.40
2019-05-21T21:19:14.873Z,39.43
2019-05-21T21:21:41.481Z,38.90
2019-05-21T21:24:09.122Z,40.13
2019-05-21T21:26:35.753Z,42.93
2019-05-21T21:29:02.421Z,44.17
2019-05-21T21:31:29.184Z,35.40
2019-05-21T21:33:56.327Z,46.73
2019-05-21T21:36:22.722Z,50.80
2019-05-21T21:38:49.632Z,39.60
2019-05-21T21:41:15.970Z,35.57
2019-05-21T21:43:42.381Z,34.13
2019-05-21T21:46:08.985Z,31.10
2019-05-21T21:48:36.843Z,36.93
2019-05-21T21:51:03.829Z,33.37
2019-05-21T21:53:30.482Z,29.30
2019-05-21T21:55:56.848Z,33.53
2019-05-21T21:58:23.254Z,30.70
2019-05-21T22:01:03.953Z,29.93
2019-05-21T22:03:33.319Z,23.93
2019-05-21T22:06:00.379Z,20.10
2019-05-21T22:08:28.044Z,17.40
2019-05-21T22:10:54.383Z,20.37
2019-05-21T22:13:20.834Z,15.73
2019-05-21T22:15:47.267Z,18.90
2019-05-21T22:18:15.375Z,20.30
2019-05-21T22:20:42.726Z,18.80
2019-05-21T22:23:09.784Z,21.30
2019-05-21T22:25:36.155Z,18.83
2019-05-21T22:28:02.697Z,18.23
2019-05-21T22:30:29.059Z,11.23
2019-05-21T22:32:55.649Z,17.17
2019-05-21T22:35:22.233Z,16.83
2019-05-21T22:37:48.752Z,19.43
2019-05-21T22:40:15.184Z,13.10
2019-05-21T22:42:41.802Z,13.67
2019-05-21T22:45:10.388Z,17.43
2019-05-21T22:47:36.781Z,13.20
2019-05-21T22:50:05.052Z,14.97
2019-05-21T22:52:31.498Z,13.43
2019-05-21T22:54:57.879Z,25.43
2019-05-21T22:57:26.282Z,20.17
2019-05-21T22:59:52.523Z,22.63
2019-05-21T23:02:20.821Z,17.87
2019-05-21T23:04:47.280Z,20.00
2019-05-21T23:07:14.991Z,20.47
2019-05-21T23:09:41.430Z,33.17
2019-05-21T23:12:09.287Z,24.77
2019-05-21T23:14:35.676Z,28.40
2019-05-21T23:17:05.801Z,29.60
2019-05-21T23:19:37.391Z,27.13
2019-05-21T23:22:08.414Z,31.27
2019-05-21T23:24:36.305Z,33.57
2019-05-21T23:27:04.733Z,33.87
2019-05-21T23:29:31.224Z,35.17
2019-05-21T23:31:58.704Z,29.13
2019-05-21T23:34:25.331Z,23.37
2019-05-21T23:36:52.977Z,28.17
2019-05-21T23:39:21.331Z,25.83
2019-05-21T23:41:48.052Z,26.87
2019-05-21T23:44:15.057Z,28.47
2019-05-21T23:46:41.413Z,24.67
2019-05-21T23:49:07.892Z,20.00
2019-05-21T23:51:35.396Z,22.90
2019-05-21T23:54:02.161Z,21.93
2019-05-21T23:56:28.556Z,19.67
2019-05-21T23:58:55.226Z,17.97
